Lankin, North Dakota
Current Conditions -  °F | °C
As of 3:35 AM on Saturday 29 Nov 2014 (Local Time) from KGAF Reporting Station
Overcast Overcast  
Wind Chill: 11°   Ceiling: 1100
Heat Index: 18°   Visibility: 8mi
Dew Point: 14°   Wind: 5mph
Humidity: 86%   Direction: 110°ESE
Pressure: 29.49"   Gusts: NA
Location:  48.31°N, 97.93°W
Report Text: KGAF 290935Z AUTO 11004KT 8SM OVC011 M08/M10 A2949 RMK AO2
Loading
Personal Weather Stations






























Interactive Weather Map New forecast layout! Learn more

10-Day Weather Forecast

Advertisements
Track Severe Weather on mobile